Time;durP1;ratioP1;P1;durP2;ratioP2;P2;SDS_P1;SDS_P2;PMS_P1;PMS_P2;Temp;Humidity;BMP_temperature;BMP_pressure;BME280_temperature;BME280_humidity;BME280_pressure;Samples;Min_cycle;Max_cycle;Signal;HPM_P1;HPM_P2
2022/09/11 00:01:15;;;;;;;4.47;2.10;;;;;;;16.83;100.00;100892.56;4993213;28;20068;-85
2022/09/11 00:03:42;;;;;;;1.67;1.58;;;;;;;16.99;100.00;100878.00;5008813;28;20030;-85
2022/09/11 00:06:10;;;;;;;2.47;2.03;;;;;;;17.01;100.00;100878.69;5012922;28;20069;-85
2022/09/11 00:08:38;;;;;;;3.55;2.15;;;;;;;17.20;100.00;100877.88;5012503;28;20021;-85
2022/09/11 00:11:08;;;;;;;3.65;2.10;;;;;;;17.22;100.00;100875.97;5012779;28;20114;-85
2022/09/11 00:13:36;;;;;;;3.03;1.50;;;;;;;17.28;100.00;100882.53;4998113;28;20058;-85
2022/09/11 00:16:16;;;;;;;2.53;2.10;;;;;;;17.27;100.00;100881.69;4992754;28;20038;-85
2022/09/11 00:18:42;;;;;;;1.80;1.50;;;;;;;17.22;100.00;100890.06;5006663;28;20034;-85
2022/09/11 00:21:07;;;;;;;2.90;1.42;;;;;;;17.19;100.00;100881.53;5012562;28;20022;-85
2022/09/11 00:23:32;;;;;;;2.47;1.20;;;;;;;17.18;100.00;100882.50;5011309;28;20022;-85
2022/09/11 00:26:02;;;;;;;4.00;1.50;;;;;;;17.13;100.00;100884.72;5012449;28;20029;-85
2022/09/11 00:28:28;;;;;;;1.75;1.40;;;;;;;17.15;100.00;100882.78;4996496;28;20365;-85
2022/09/11 00:30:59;;;;;;;4.03;1.60;;;;;;;17.03;100.00;100874.09;4992793;28;20033;-85
2022/09/11 00:33:26;;;;;;;2.25;1.60;;;;;;;17.06;100.00;100868.50;5006069;28;20025;-85
2022/09/11 00:36:04;;;;;;;4.10;2.47;;;;;;;16.91;100.00;100865.41;5012144;28;20030;-85
2022/09/11 00:38:33;;;;;;;4.38;2.60;;;;;;;16.99;100.00;100862.91;5011997;28;20060;-85
2022/09/11 00:41:00;;;;;;;6.25;2.67;;;;;;;17.04;100.00;100870.44;5012212;28;20022;-85
2022/09/11 00:43:28;;;;;;;4.10;1.90;;;;;;;17.05;100.00;100866.84;4994726;28;20058;-85
2022/09/11 00:46:00;;;;;;;2.20;2.00;;;;;;;17.12;100.00;100872.44;4992641;28;20026;-85
2022/09/11 00:48:29;;;;;;;3.72;2.03;;;;;;;17.10;100.00;100874.38;5003690;28;20036;-85
2022/09/11 00:50:57;;;;;;;3.97;1.85;;;;;;;17.14;100.00;100867.81;5012133;28;20076;-85
2022/09/11 00:53:25;;;;;;;6.78;2.47;;;;;;;17.12;100.00;100865.31;5010753;28;20049;-85
2022/09/11 00:55:56;;;;;;;2.20;1.77;;;;;;;17.15;100.00;100861.56;5012100;28;20060;-85
2022/09/11 00:58:26;;;;;;;2.90;1.65;;;;;;;17.17;100.00;100870.22;4997186;28;20030;-85
2022/09/11 01:00:55;;;;;;;5.05;2.60;;;;;;;17.12;100.00;100864.47;4996559;28;20023;-85
2022/09/11 01:03:22;;;;;;;8.85;3.03;;;;;;;17.06;100.00;100863.19;5004923;28;20490;-85
2022/09/11 01:05:48;;;;;;;2.92;2.03;;;;;;;17.11;100.00;100860.16;5015948;28;20076;-85
2022/09/11 01:08:13;;;;;;;8.80;2.70;;;;;;;17.15;100.00;100857.09;5015916;28;20387;-85
2022/09/11 01:10:51;;;;;;;3.28;1.95;;;;;;;17.19;100.00;100852.34;5015951;28;20018;-85
2022/09/11 01:13:26;;;;;;;2.22;2.03;;;;;;;17.12;100.00;100853.84;4996131;28;20037;-85
2022/09/11 01:16:14;;;;;;;2.95;2.13;;;;;;;17.04;100.00;100852.75;4996306;28;20038;-85
2022/09/11 01:19:04;;;;;;;3.17;2.38;;;;;;;17.04;100.00;100850.09;5007687;28;20034;-85
2022/09/11 01:21:51;;;;;;;2.88;2.25;;;;;;;17.02;100.00;100857.34;5014304;28;20025;-85
2022/09/11 01:24:31;;;;;;;3.17;2.50;;;;;;;17.01;100.00;100850.34;5015625;28;20072;-85
2022/09/11 01:27:18;;;;;;;4.75;2.97;;;;;;;17.02;100.00;100852.03;5004141;28;20508;-84
2022/09/11 01:29:57;;;;;;;8.40;3.42;;;;;;;17.05;100.00;100857.06;4995864;28;20030;-86
2022/09/11 01:32:33;;;;;;;5.78;3.30;;;;;;;17.03;100.00;100861.66;4996436;28;20065;-86
2022/09/11 01:35:23;;;;;;;3.63;2.60;;;;;;;17.05;100.00;100862.34;4995513;28;20507;-85
2022/09/11 01:38:00;;;;;;;3.13;2.38;;;;;;;16.97;100.00;100869.31;4995640;28;20027;-85
2022/09/11 01:40:39;;;;;;;6.40;3.00;;;;;;;16.94;100.00;100872.22;5000226;28;20042;-85
2022/09/11 01:43:30;;;;;;;4.50;2.88;;;;;;;16.91;100.00;100870.69;4995330;28;20023;-85
2022/09/11 01:45:58;;;;;;;3.78;2.38;;;;;;;16.84;100.00;100872.19;4991388;28;20038;-86
2022/09/11 01:48:30;;;;;;;3.38;2.50;;;;;;;16.82;100.00;100872.34;5006076;28;20038;-86
2022/09/11 01:50:59;;;;;;;3.97;2.53;;;;;;;16.78;100.00;100870.03;5014913;28;20032;-86
2022/09/11 01:53:31;;;;;;;3.83;2.92;;;;;;;16.71;100.00;100869.75;5015005;28;20033;-86
2022/09/11 01:56:06;;;;;;;;;;;;;;;16.76;100.00;100869.34;5008126;28;20506;-86
2022/09/11 01:58:35;;;;;;;3.30;3.00;;;;;;;16.69;100.00;100870.88;4995499;28;19920;-86
2022/09/11 02:01:08;;;;;;;3.35;3.05;;;;;;;16.66;100.00;100878.09;4995394;28;20114;-85
2022/09/11 02:03:41;;;;;;;6.60;3.97;;;;;;;16.51;100.00;100879.41;5004901;28;20034;-86
2022/09/11 02:06:11;;;;;;;5.18;3.38;;;;;;;16.51;100.00;100875.91;5014850;28;20029;-86
2022/09/11 02:08:48;;;;;;;7.90;3.80;;;;;;;16.59;100.00;100869.00;5014674;28;20030;-85
2022/09/11 02:11:14;;;;;;;5.80;3.78;;;;;;;16.66;100.00;100872.78;5003406;28;20109;-85
2022/09/11 02:14:01;;;;;;;3.20;2.90;;;;;;;16.71;100.00;100861.78;4995064;28;20477;-85
2022/09/11 02:16:34;;;;;;;6.32;3.17;;;;;;;16.84;100.00;100864.25;4994752;28;20055;-85
2022/09/11 02:18:59;;;;;;;7.57;3.50;;;;;;;16.84;100.00;100869.53;5009101;28;20071;-85
2022/09/11 02:21:25;;;;;;;4.00;3.05;;;;;;;16.80;100.00;100858.31;5014658;28;20034;-85
2022/09/11 02:23:50;;;;;;;5.85;2.88;;;;;;;16.79;100.00;100871.75;5014590;28;20029;-85
2022/09/11 02:26:19;;;;;;;3.88;3.10;;;;;;;16.78;100.00;100862.09;5008262;28;20034;-85
2022/09/11 02:28:45;;;;;;;4.95;3.50;;;;;;;16.75;100.00;100859.72;4995980;28;20038;-85
2022/09/11 02:31:11;;;;;;;4.00;2.78;;;;;;;16.74;100.00;100863.34;4994498;28;20546;-85
2022/09/11 02:33:36;;;;;;;2.72;2.50;;;;;;;16.66;100.00;100856.88;5009934;28;20117;-85
2022/09/11 02:36:16;;;;;;;3.50;2.65;;;;;;;16.64;100.00;100861.47;5014443;28;20110;-86
2022/09/11 02:39:17;;;;;;;4.68;3.17;;;;;;;16.66;100.00;100867.47;5014025;28;20040;-85
2022/09/11 02:42:20;;;;;;;3.38;2.90;;;;;;;16.61;100.00;100864.41;5010709;28;20038;-85
2022/09/11 02:45:34;;;;;;;2.70;2.50;;;;;;;16.58;100.00;100866.47;4994372;28;20121;-85
2022/09/11 02:48:40;;;;;;;5.05;3.30;;;;;;;16.50;100.00;100861.81;4992339;28;20050;-86
2022/09/11 02:51:23;;;;;;;4.05;3.13;;;;;;;16.45;100.00;100858.75;4994210;28;20033;-84
2022/09/11 02:54:04;;;;;;;3.47;2.63;;;;;;;16.43;100.00;100858.03;4994444;28;20473;-84
2022/09/11 02:56:47;;;;;;;3.78;2.78;;;;;;;16.36;100.00;100852.41;4994340;28;20030;-84
2022/09/11 02:59:23;;;;;;;4.15;3.05;;;;;;;16.34;100.00;100853.50;5013103;28;20036;-84
2022/09/11 03:01:54;;;;;;;3.08;2.78;;;;;;;16.31;100.00;100854.63;4998588;28;20088;-84
2022/09/11 03:04:21;;;;;;;3.70;2.92;;;;;;;16.31;100.00;100851.09;4994292;28;20026;-85
2022/09/11 03:06:48;;;;;;;4.72;3.40;;;;;;;16.31;100.00;100859.06;4994099;28;20029;-85
2022/09/11 03:09:15;;;;;;;6.35;3.58;;;;;;;16.31;100.00;100853.75;4992725;28;20084;-85
2022/09/11 03:11:42;;;;;;;7.25;3.25;;;;;;;16.28;100.00;100844.28;4994834;28;20396;-85
2022/09/11 03:14:07;;;;;;;3.00;2.70;;;;;;;16.30;100.00;100838.84;5013243;28;20139;-85
2022/09/11 03:16:33;;;;;;;6.78;2.70;;;;;;;16.30;100.00;100844.97;5012393;28;20176;-85
2022/09/11 03:18:58;;;;;;;5.22;2.78;;;;;;;16.28;100.00;100832.84;5011734;28;20030;-85
2022/09/11 03:21:24;;;;;;;3.72;2.90;;;;;;;16.26;100.00;100833.78;5013264;28;20087;-85
2022/09/11 03:23:49;;;;;;;4.57;3.08;;;;;;;16.28;100.00;100832.84;5013572;28;20480;-85
2022/09/11 03:26:16;;;;;;;5.38;3.45;;;;;;;16.22;100.00;100826.25;5013350;28;20092;-85
2022/09/11 03:28:42;;;;;;;6.25;4.15;;;;;;;16.20;100.00;100823.72;5012776;28;20428;-85
2022/09/11 03:31:08;;;;;;;5.00;4.40;;;;;;;16.14;100.00;100821.59;5003707;28;20109;-84
2022/09/11 03:33:33;;;;;;;6.30;4.13;;;;;;;16.11;100.00;100808.59;4993422;28;20117;-84
2022/09/11 03:35:59;;;;;;;11.80;5.28;;;;;;;16.12;100.00;100807.66;4993620;28;20420;-84
2022/09/11 03:38:24;;;;;;;4.88;4.22;;;;;;;16.30;100.00;100807.06;4993423;28;20030;-84
2022/09/11 03:40:49;;;;;;;6.43;3.83;;;;;;;16.36;100.00;100806.53;4993768;28;20109;-84
2022/09/11 03:43:15;;;;;;;5.70;4.22;;;;;;;16.38;100.00;100802.75;5005776;28;20029;-84
2022/09/11 03:45:41;;;;;;;5.35;3.85;;;;;;;16.39;100.00;100803.59;5012133;28;20105;-84
2022/09/11 03:48:06;;;;;;;6.30;4.20;;;;;;;16.38;100.00;100805.41;5012887;28;20018;-84
2022/09/11 03:50:32;;;;;;;6.05;3.70;;;;;;;16.34;100.00;100800.50;5013132;28;20033;-84
2022/09/11 03:52:58;;;;;;;11.15;4.80;;;;;;;16.29;100.00;100802.72;5013077;28;20022;-83
2022/09/11 03:55:23;;;;;;;7.32;4.32;;;;;;;16.31;100.00;100800.75;5012667;28;20442;-84
2022/09/11 03:57:49;;;;;;;8.60;4.10;;;;;;;16.34;100.00;100797.88;5012427;28;20471;-84
2022/09/11 04:00:14;;;;;;;5.28;3.97;;;;;;;16.33;100.00;100796.16;5007258;28;20030;-84
2022/09/11 04:02:40;;;;;;;6.35;4.55;;;;;;;16.28;100.00;100793.94;4993051;28;20030;-84
2022/09/11 04:05:07;;;;;;;4.45;4.00;;;;;;;16.28;100.00;100787.78;4992907;28;20054;-84
2022/09/11 04:07:33;;;;;;;4.70;4.00;;;;;;;16.29;100.00;100794.75;4992951;28;20476;-84
2022/09/11 04:09:59;;;;;;;8.05;4.57;;;;;;;16.17;100.00;100783.41;4993273;28;20032;-84
2022/09/11 04:12:24;;;;;;;5.78;4.32;;;;;;;16.24;100.00;100781.91;4998461;28;20113;-84
2022/09/11 04:14:50;;;;;;;5.47;4.30;;;;;;;16.27;100.00;100773.69;5011430;28;20498;-84
2022/09/11 04:17:16;;;;;;;9.15;5.05;;;;;;;16.07;100.00;100780.69;5012686;28;20033;-84
2022/09/11 04:19:41;;;;;;;10.88;6.45;;;;;;;16.25;100.00;100784.44;5012370;28;20022;-84
2022/09/11 04:22:07;;;;;;;7.50;5.18;;;;;;;16.38;100.00;100783.38;5012427;28;20491;-84
2022/09/11 04:24:33;;;;;;;7.07;5.65;;;;;;;16.45;100.00;100787.19;5012553;28;20029;-84
2022/09/11 04:26:59;;;;;;;7.75;5.22;;;;;;;16.47;100.00;100793.19;5012292;28;20037;-84
2022/09/11 04:29:25;;;;;;;8.65;5.53;;;;;;;16.50;100.00;100790.25;5008454;28;20034;-84
2022/09/11 04:31:51;;;;;;;9.38;5.20;;;;;;;16.51;100.00;100794.59;4991564;28;20050;-84
2022/09/11 04:34:16;;;;;;;9.35;5.65;;;;;;;16.50;100.00;100792.91;4992598;28;20110;-86
2022/09/11 04:36:42;;;;;;;7.47;5.47;;;;;;;16.55;100.00;100798.66;4992437;28;20038;-85
2022/09/11 04:39:08;;;;;;;6.13;4.85;;;;;;;16.52;100.00;100798.91;4992511;28;20027;-85
2022/09/11 04:41:33;;;;;;;13.40;7.18;;;;;;;16.47;100.00;100801.16;4992593;28;20032;-85
2022/09/11 04:44:00;;;;;;;8.75;6.35;;;;;;;16.54;100.00;100804.09;5009385;28;20030;-85
2022/09/11 04:46:25;;;;;;;9.23;6.97;;;;;;;16.57;100.00;100803.84;5012245;28;20034;-86
2022/09/11 04:48:54;;;;;;;11.95;9.15;;;;;;;16.56;100.00;100802.16;5011950;28;20026;-85
2022/09/11 04:51:31;;;;;;;9.02;7.32;;;;;;;16.62;100.00;100797.13;5010723;28;20484;-85
2022/09/11 04:53:57;;;;;;;8.20;6.10;;;;;;;16.62;100.00;100804.25;5011977;28;20022;-85
2022/09/11 04:56:25;;;;;;;7.50;6.55;;;;;;;16.58;100.00;100798.38;5011924;28;20030;-86
2022/09/11 04:58:59;;;;;;;12.27;7.80;;;;;;;16.58;100.00;100798.38;5008844;28;20030;-85
2022/09/11 05:01:26;;;;;;;8.20;6.80;;;;;;;16.59;100.00;100797.41;4992201;28;20716;-86
2022/09/11 05:03:52;;;;;;;11.90;7.15;;;;;;;16.56;100.00;100799.50;5001473;28;20034;-85
2022/09/11 05:06:18;;;;;;;11.27;8.30;;;;;;;16.52;100.00;100798.91;5012109;28;20416;-85
2022/09/11 05:08:45;;;;;;;13.23;8.75;;;;;;;16.53;100.00;100805.03;5011808;28;20037;-85
2022/09/11 05:11:12;;;;;;;12.57;9.52;;;;;;;16.55;100.00;100811.09;5011971;28;20145;-84
2022/09/11 05:13:38;;;;;;;11.88;8.75;;;;;;;16.51;100.00;100807.00;5011439;28;20113;-85
2022/09/11 05:16:05;;;;;;;12.90;9.95;;;;;;;16.46;100.00;100813.53;5011752;28;20137;-86
2022/09/11 05:18:31;;;;;;;13.68;9.50;;;;;;;16.42;100.00;100816.59;5002844;28;20096;-84
2022/09/11 05:21:00;;;;;;;19.95;10.18;;;;;;;16.45;100.00;100811.03;4991900;28;20030;-84
2022/09/11 05:23:26;;;;;;;13.88;9.70;;;;;;;16.51;100.00;100817.59;4991991;28;20034;-85
2022/09/11 05:25:57;;;;;;;13.52;9.88;;;;;;;16.53;100.00;100816.50;4990773;28;20109;-86
2022/09/11 05:28:22;;;;;;;17.58;11.88;;;;;;;16.45;100.00;100819.00;5002413;28;20044;-86
2022/09/11 05:30:48;;;;;;;16.42;10.25;;;;;;;16.59;100.00;100817.78;5011864;28;20468;-85
2022/09/11 05:33:14;;;;;;;11.38;8.65;;;;;;;16.65;100.00;100826.03;5002494;28;20027;-84
2022/09/11 05:35:39;;;;;;;21.33;9.50;;;;;;;16.59;100.00;100815.97;4991450;28;20066;-84
2022/09/11 05:38:05;;;;;;;12.35;8.82;;;;;;;16.58;100.00;100824.88;4990868;28;20139;-84
2022/09/11 05:40:30;;;;;;;9.05;7.10;;;;;;;16.59;100.00;100820.44;4992194;28;20050;-84
2022/09/11 05:42:55;;;;;;;10.30;7.47;;;;;;;16.60;100.00;100820.28;4999894;28;20073;-85
2022/09/11 05:45:21;;;;;;;9.02;7.70;;;;;;;16.61;100.00;100821.97;5014844;28;20434;-85
2022/09/11 05:47:46;;;;;;;10.68;8.18;;;;;;;16.60;100.00;100825.59;5013552;28;20044;-84
2022/09/11 05:50:12;;;;;;;10.68;7.60;;;;;;;16.61;100.00;100832.59;4995505;28;20228;-84
2022/09/11 05:52:37;;;;;;;9.82;7.43;;;;;;;16.66;100.00;100825.06;5003988;28;20468;-84
2022/09/11 05:55:03;;;;;;;12.52;8.02;;;;;;;16.70;100.00;100824.81;5013346;28;20357;-84
2022/09/11 05:57:28;;;;;;;9.52;6.88;;;;;;;16.75;100.00;100830.56;5013603;28;20045;-84
2022/09/11 05:59:54;;;;;;;12.05;8.48;;;;;;;16.66;100.00;100822.41;5013807;28;20037;-84
2022/09/11 06:02:19;;;;;;;10.32;8.38;;;;;;;16.77;100.00;100818.84;5014951;28;20026;-85
2022/09/11 06:04:45;;;;;;;11.20;7.80;;;;;;;16.88;100.00;100814.41;5013517;28;20120;-84
2022/09/11 06:07:10;;;;;;;9.60;8.27;;;;;;;16.96;100.00;100814.59;5014554;28;20037;-85
2022/09/11 06:09:35;;;;;;;11.88;8.75;;;;;;;17.05;100.00;100808.47;5015320;28;20033;-84
2022/09/11 06:12:01;;;;;;;13.55;8.05;;;;;;;17.13;100.00;100799.81;5012607;28;20037;-84
2022/09/11 06:14:26;;;;;;;12.82;8.40;;;;;;;17.21;100.00;100794.66;5014466;28;20041;-83
2022/09/11 06:16:55;;;;;;;13.43;10.70;;;;;;;17.29;100.00;100794.81;5014446;28;20029;-84
2022/09/11 06:19:20;;;;;;;12.73;9.95;;;;;;;17.42;100.00;100784.78;4996087;28;20507;-84
2022/09/11 06:21:46;;;;;;;14.48;9.90;;;;;;;17.47;100.00;100792.31;4996131;28;20034;-85
2022/09/11 06:24:11;;;;;;;16.33;9.00;;;;;;;17.56;100.00;100794.13;5014545;28;20024;-84
2022/09/11 06:26:36;;;;;;;14.50;10.00;;;;;;;17.68;100.00;100797.47;5012625;28;20049;-84
2022/09/11 06:29:02;;;;;;;15.73;10.55;;;;;;;17.80;100.00;100793.69;5013149;28;20390;-84
2022/09/11 06:31:28;;;;;;;16.20;12.13;;;;;;;17.80;100.00;100788.38;5013569;28;20426;-84
2022/09/11 06:33:54;;;;;;;12.88;10.13;;;;;;;18.01;100.00;100800.69;5008320;28;20034;-84
2022/09/11 06:36:30;;;;;;;17.52;13.02;;;;;;;18.08;100.00;100803.59;5014139;28;20108;-84
2022/09/11 06:38:56;;;;;;;19.35;11.90;;;;;;;18.17;100.00;100803.59;5013909;28;20116;-84
2022/09/11 06:41:23;;;;;;;14.57;10.63;;;;;;;18.40;100.00;100811.19;5013963;28;20109;-84
2022/09/11 06:43:49;;;;;;;18.40;11.35;;;;;;;18.55;100.00;100800.94;5013313;28;20026;-84
2022/09/11 06:46:20;;;;;;;16.75;10.90;;;;;;;18.73;100.00;100806.31;5013983;28;20036;-84
2022/09/11 06:48:47;;;;;;;15.07;9.75;;;;;;;18.85;100.00;100805.16;5003781;28;20022;-84
2022/09/11 06:51:18;;;;;;;18.85;10.73;;;;;;;19.03;100.00;100808.69;5012948;28;20030;-84
2022/09/11 06:53:45;;;;;;;14.45;10.85;;;;;;;19.17;100.00;100806.50;5011161;28;20026;-85
2022/09/11 06:56:13;;;;;;;16.90;9.70;;;;;;;19.41;100.00;100800.56;5013005;28;20025;-85
2022/09/11 06:58:40;;;;;;;16.38;10.95;;;;;;;19.63;100.00;100799.31;5013082;28;20029;-84
2022/09/11 07:01:25;;;;;;;15.98;11.23;;;;;;;19.96;100.00;100807.56;5014061;28;20021;-85
2022/09/11 07:03:53;;;;;;;14.75;10.18;;;;;;;20.33;100.00;100801.13;5011447;28;20038;-85
2022/09/11 07:06:24;;;;;;;13.93;9.80;;;;;;;20.69;100.00;100806.34;5010381;28;20526;-85
2022/09/11 07:08:59;;;;;;;16.50;11.32;;;;;;;21.09;100.00;100802.13;4992677;28;20029;-85
2022/09/11 07:11:25;;;;;;;15.10;11.65;;;;;;;21.50;100.00;100795.03;4996784;28;20033;-84
2022/09/11 07:13:50;;;;;;;13.63;10.48;;;;;;;21.94;100.00;100801.91;5012439;28;20030;-84
2022/09/11 07:16:16;;;;;;;16.52;10.95;;;;;;;22.44;100.00;100808.84;4993228;28;20038;-84
2022/09/11 07:18:42;;;;;;;;;;;;;;;22.73;94.53;100805.56;4993761;28;20029;-84
2022/09/11 07:21:09;;;;;;;;;;;;;;;23.13;95.22;100801.00;4994217;28;19957;-84
2022/09/11 07:23:35;;;;;;;;;;;;;;;23.54;93.39;100802.59;5010260;28;20330;-84
2022/09/11 07:26:06;;;;;;;;;;;;;;;23.68;87.77;100796.44;5013933;28;19917;-85
2022/09/11 07:28:31;;;;;;;;;;;;;;;23.80;91.41;100798.72;5013189;28;20282;-84
2022/09/11 07:31:05;;;;;;;;;;;;;;;23.82;88.91;100796.69;5008371;28;19926;-84
2022/09/11 07:33:30;;;;;;;;;;;;;;;23.90;85.25;100802.78;5010205;28;19921;-86
2022/09/11 07:35:56;;;;;;;;;;;;;;;23.91;85.74;100806.31;5005100;28;19917;-86
2022/09/11 07:38:21;;;;;;;8.85;7.03;;;;;;;24.19;85.07;100803.00;5000265;28;19918;-86
2022/09/11 07:40:46;;;;;;;10.05;8.07;;;;;;;24.24;81.93;100800.63;5010553;28;20030;-86
2022/09/11 07:43:12;;;;;;;8.27;7.35;;;;;;;24.28;81.73;100802.75;5010887;28;20387;-86
2022/09/11 07:45:38;;;;;;;9.52;6.88;;;;;;;24.16;81.93;100804.22;5012730;28;20456;-87
2022/09/11 07:48:05;;;;;;;12.10;7.45;;;;;;;24.33;80.32;100810.25;5012547;28;20141;-86
2022/09/11 07:50:30;;;;;;;8.48;5.65;;;;;;;24.46;78.33;100805.06;5012576;28;20049;-86
2022/09/11 07:52:55;;;;;;;;;;;;;;;24.64;79.52;100806.56;5013377;28;20096;-86
2022/09/11 07:55:20;;;;;;;;;;;;;;;24.86;79.97;100800.25;5012106;28;20286;-85
2022/09/11 07:57:46;;;;;;;;;;;;;;;25.18;77.90;100797.25;5009237;28;19983;-85
2022/09/11 08:00:15;;;;;;;;;;;;;;;25.24;78.27;100792.00;5005079;28;20363;-86
2022/09/11 08:02:41;;;;;;;;;;;;;;;25.55;73.31;100787.31;5013000;28;19913;-86
2022/09/11 08:05:06;;;;;;;;;;;;;;;26.07;70.74;100794.19;5012796;28;20379;-85
2022/09/11 08:07:32;;;;;;;;;;;;;;;26.42;67.44;100786.06;5009139;28;19918;-87
2022/09/11 08:09:57;;;;;;;;;;;;;;;26.97;66.57;100783.44;5012392;28;19964;-86
2022/09/11 08:12:22;;;;;;;;;;;;;;;27.33;64.41;100787.69;5007525;28;20013;-85
2022/09/11 08:14:47;;;;;;;;;;;;;;;27.89;60.89;100787.31;5011449;28;20433;-87
2022/09/11 08:17:13;;;;;;;;;;;;;;;27.93;60.46;100783.16;5004986;28;19924;-87
2022/09/11 08:19:38;;;;;;;;;;;;;;;28.46;57.86;100785.72;5007429;28;19917;-87
2022/09/11 08:22:03;;;;;;;;;;;;;;;28.97;54.28;100773.25;5008794;28;19971;-87
2022/09/11 08:24:29;;;;;;;;;;;;;;;29.33;54.37;100771.81;5000031;28;20495;-87
2022/09/11 08:26:55;;;;;;;;;;;;;;;30.18;51.15;100779.38;5003564;28;20415;-87
2022/09/11 08:29:21;;;;;;;;;;;;;;;33.47;43.15;100777.03;5015461;28;19917;-88
2022/09/11 08:31:46;;;;;;;;;;;;;;;36.11;38.40;100772.31;5011909;28;19917;-87
2022/09/11 08:34:11;;;;;;;;;;;;;;;40.38;30.42;100769.66;5012714;28;19924;-88
2022/09/11 08:36:36;;;;;;;;;;;;;;;39.81;29.03;100773.06;5011928;28;19921;-88
2022/09/11 08:39:02;;;;;;;;;;;;;;;38.55;30.65;100765.50;5000906;28;19917;-90
2022/09/11 08:41:40;;;;;;;;;;;;;;;36.48;33.42;100774.94;5004397;28;19913;-89
2022/09/11 08:44:08;;;;;;;;;;;;;;;32.94;38.27;100776.41;4991729;28;19914;-89
2022/09/11 08:46:35;;;;;;;;;;;;;;;33.18;38.51;100773.59;4998579;28;20390;-89
2022/09/11 08:49:19;;;;;;;;;;;;;;;31.65;41.51;100773.88;5012571;28;19913;-89
2022/09/11 08:51:46;;;;;;;;;;;;;;;37.37;33.21;100705.56;5005151;28;19920;-89
2022/09/11 08:54:32;;;;;;;;;;;;;;;39.55;30.42;100742.25;5013395;28;19964;-89
2022/09/11 08:57:04;;;;;;;;;;;;;;;38.85;31.40;100750.78;5004463;28;20272;-90
2022/09/11 08:59:38;;;;;;;;;;;;;;;41.80;27.86;100770.44;5003988;28;20399;-90
2022/09/11 09:02:18;;;;;;;;;;;;;;;42.48;26.67;100763.25;5012456;28;19913;-90
2022/09/11 09:04:46;;;;;;;;;;;;;;;41.31;26.60;100769.91;5012273;28;19917;-90
2022/09/11 09:07:12;;;;;;;;;;;;;;;41.00;27.58;100740.13;5005417;28;19973;-90
2022/09/11 09:09:37;;;;;;;;;;;;;;;42.58;25.77;100738.19;4995807;28;19925;-90
2022/09/11 09:12:21;;;;;;;;;;;;;;;44.21;23.91;100749.97;5010239;28;20389;-91
2022/09/11 09:14:57;;;;;;;;;;;;;;;47.42;21.25;100755.13;5002740;28;19944;-91
2022/09/11 09:17:34;;;;;;;;;;;;;;;44.81;22.47;100784.38;4993528;28;19921;-91
2022/09/11 09:20:05;;;;;;;;;;;;;;;45.87;22.72;100786.59;5016489;28;20056;-93
2022/09/11 09:22:30;;;;;;;;;;;;;;;45.66;22.51;100795.69;5010043;28;20397;-91
2022/09/11 09:24:59;;;;;;;;;;;;;;;43.24;23.67;100794.88;5006509;28;19918;-91
2022/09/11 09:27:29;;;;;;;;;;;;;;;43.71;23.33;100793.41;5014954;28;19928;-91
2022/09/11 09:29:57;;;;;;;;;;;;;;;43.83;23.52;100787.28;5014814;28;20414;-90
2022/09/11 09:32:26;;;;;;;;;;;;;;;42.67;24.45;100784.34;5015918;28;20276;-94
2022/09/11 09:34:53;;;;;;;;;;;;;;;43.18;24.04;100780.38;5015394;28;19917;-89
2022/09/11 09:37:22;;;;;;;;;;;;;;;44.07;23.38;100774.97;5014151;28;19917;-89
2022/09/11 09:39:47;;;;;;;;;;;;;;;39.36;27.68;100777.03;5014970;28;19920;-89
2022/09/11 09:42:15;;;;;;;;;;;;;;;37.46;29.81;100775.94;5003323;28;19918;-89
2022/09/11 09:45:10;;;;;;;;;;;;;;;35.78;32.22;100778.94;5007815;28;19931;-90
2022/09/11 09:47:37;;;;;;;;;;;;;;;34.77;34.25;100792.22;5001545;28;19924;-88
2022/09/11 09:50:03;;;;;;;;;;;;;;;33.48;36.67;100786.88;5013501;28;19975;-88
2022/09/11 09:52:32;;;;;;;;;;;;;;;34.11;35.92;100778.56;5000131;28;19917;-88
2022/09/11 09:54:59;;;;;;;;;;;;;;;32.36;38.35;100778.22;4995941;28;20383;-89
2022/09/11 09:57:27;;;;;;;;;;;;;;;31.66;39.70;100778.28;4994609;28;19913;-88
2022/09/11 10:00:03;;;;;;;;;;;;;;;30.62;42.35;100777.44;5008553;28;19925;-89
2022/09/11 10:02:48;;;;;;;;;;;;;;;31.15;41.68;100780.50;5015490;28;19967;-89
2022/09/11 10:05:46;;;;;;;;;;;;;;;29.26;45.21;100782.66;5013053;28;19951;-88
2022/09/11 10:08:41;;;;;;;3.72;2.10;;;;;;;32.25;39.95;100780.94;4987407;28;20429;-88
2022/09/11 10:11:10;;;;;;;4.97;2.30;;;;;;;32.45;39.86;100775.97;5003334;28;20451;-89
2022/09/11 10:13:41;;;;;;;;;;;;;;;32.71;39.18;100771.06;5002065;28;20412;-88
2022/09/11 10:16:18;;;;;;;;;;;;;;;32.34;40.23;100772.19;4994797;28;19981;-89
2022/09/11 10:18:45;;;;;;;;;;;;;;;36.49;34.54;100773.03;4994977;28;19913;-88
2022/09/11 10:21:11;;;;;;;5.82;1.90;;;;;;;37.26;32.64;100768.53;5009463;28;19921;-88
2022/09/11 10:24:21;;;;;;;7.05;2.20;;;;;;;35.80;33.69;100765.84;5008937;28;20100;-89
2022/09/11 10:26:49;;;;;;;;;;;;;;;37.44;31.29;100771.81;4995119;28;20358;-89
2022/09/11 10:29:20;;;;;;;;;;;;;;;36.84;32.16;100772.31;5011129;28;20060;-89
2022/09/11 10:31:53;;;;;;;;;;;;;;;36.51;33.15;100759.91;5012472;28;20013;-88
2022/09/11 10:34:21;;;;;;;;;;;;;;;38.51;30.55;100751.53;5000155;28;20051;-89
2022/09/11 10:36:59;;;;;;;;;;;;;;;39.83;29.11;100751.59;5009562;28;20015;-89
2022/09/11 10:39:25;;;;;;;;;;;;;;;41.72;27.52;100747.13;5014219;28;19922;-89
2022/09/11 10:41:53;;;;;;;;;;;;;;;41.46;27.46;100734.94;5008428;28;20288;-90
2022/09/11 10:44:21;;;;;;;;;;;;;;;39.16;29.77;100742.31;5012807;28;19925;-90
2022/09/11 10:47:00;;;;;;;;;;;;;;;39.14;29.78;100747.28;5011769;28;19924;-90
2022/09/11 10:49:26;;;;;;;;;;;;;;;35.79;33.79;100748.63;5010218;28;19921;-89
2022/09/11 10:52:06;;;;;;;;;;;;;;;34.75;34.65;100740.66;5006199;28;19928;-92
2022/09/11 10:54:32;;;;;;;;;;;;;;;34.84;34.50;100737.47;5006276;28;19953;-89
2022/09/11 10:57:02;;;;;;;;;;;;;;;36.09;33.87;100733.47;5009784;28;20018;-88
2022/09/11 11:00:09;;;;;;;4.13;1.90;;;;;;;35.68;33.60;100725.06;5008499;28;19918;-88
2022/09/11 11:02:37;;;;;;;;;;;;;;;33.27;37.49;100712.22;4987622;28;20052;-89
2022/09/11 11:05:07;;;;;;;;;;;;;;;31.69;39.26;100715.34;5012562;28;20386;-89
2022/09/11 11:07:55;;;;;;;;;;;;;;;32.72;39.02;100711.00;5011640;28;19964;-89
2022/09/11 11:10:32;;;;;;;;;;;;;;;31.19;38.76;100706.56;5012356;28;19925;-88
2022/09/11 11:12:58;;;;;;;;;;;;;;;30.11;40.53;100701.97;5013439;28;19914;-89
2022/09/11 11:15:37;;;;;;;;;;;;;;;28.74;42.54;100708.13;5006150;28;20444;-88
2022/09/11 11:18:19;;;;;;;;;;;;;;;29.01;43.21;100706.06;5010837;28;20453;-88
2022/09/11 11:20:51;;;;;;;;;;;;;;;28.46;44.78;100695.78;4993008;28;20295;-88
2022/09/11 11:23:20;;;;;;;;;;;;;;;27.88;45.89;100702.00;5000895;28;19921;-88
2022/09/11 11:25:49;;;;;;;;;;;;;;;27.79;47.48;100711.34;4997935;28;19918;-88
2022/09/11 11:28:34;;;;;;;;;;;;;;;29.03;45.61;100699.41;5009744;28;19968;-88
2022/09/11 11:30:59;;;;;;;;;;;;;;;27.74;46.99;100703.84;5008947;28;19921;-88
2022/09/11 11:33:46;;;;;;;2.80;0.90;;;;;;;27.44;48.29;100706.19;5011895;28;19913;-88
2022/09/11 11:37:03;;;;;;;1.55;0.55;;;;;;;26.89;49.34;100700.91;5012048;28;20077;-88
2022/09/11 11:39:32;;;;;;;;;;;;;;;26.86;50.04;100699.47;4999648;28;20046;-88
2022/09/11 11:42:25;;;;;;;2.03;0.70;;;;;;;27.08;50.21;100697.44;5007716;28;19956;-88
2022/09/11 11:45:02;;;;;;;2.28;0.73;;;;;;;28.58;47.66;100693.25;5007122;28;20029;-87
2022/09/11 11:47:33;;;;;;;2.97;0.93;;;;;;;29.56;46.72;100684.63;5010630;28;20065;-88
2022/09/11 11:50:10;;;;;;;2.35;1.05;;;;;;;30.11;43.91;100693.84;5005590;28;20026;-87
2022/09/11 11:53:00;;;;;;;3.78;1.10;;;;;;;30.37;43.07;100688.16;5008136;28;20176;-88
2022/09/11 11:56:04;;;;;;;2.83;1.00;;;;;;;30.31;43.30;100689.03;5008802;28;20116;-89